Time;durP1;ratioP1;P1;durP2;ratioP2;P2;SDS_P1;SDS_P2;PMS_P1;PMS_P2;Temp;Humidity;BMP_temperature;BMP_pressure;BME280_temperature;BME280_humidity;BME280_pressure;Samples;Min_cycle;Max_cycle;Signal;HPM_P1;HPM_P2
2023/09/29 00:00:55;;;;;;;;;;;;;;;;;;6129140;23;20351;-94
2023/09/29 00:03:21;;;;;;;;;;;;;;;;;;6128576;23;19920;-94
2023/09/29 00:05:49;;;;;;;;;;;;;;;;;;6127218;23;19944;-93
2023/09/29 00:08:22;;;;;;;;;;;;;;;;;;6128646;23;19924;-92
2023/09/29 00:10:49;;;;;;;;;;;;;;;;;;6127887;23;20283;-93
2023/09/29 00:13:16;;;;;;;;;;;;;;;;;;6126686;23;20354;-93
2023/09/29 00:15:42;;;;;;;;;;;;;;;;;;6139162;23;19917;-92
2023/09/29 00:18:08;;;;;;;;;;;;;;;;;;6152943;23;19931;-94
2023/09/29 00:20:34;;;;;;;;;;;;;;;;;;6154044;23;20349;-94
2023/09/29 00:23:00;;;;;;;;;;;;;;;;;;6151888;23;19952;-93
2023/09/29 00:25:26;;;;;;;;;;;;;;;;;;6153209;23;19912;-94
2023/09/29 00:27:52;;;;;;;;;;;;;;;;;;6152223;23;19916;-94
2023/09/29 00:30:18;;;;;;;;;;;;;;;;;;6153625;23;19904;-94
2023/09/29 00:32:45;;;;;;;;;;;;;;;;;;6152687;23;19987;-94
2023/09/29 00:35:11;;;;;;;;;;;;;;;;;;6154419;23;19905;-94
2023/09/29 00:37:37;;;;;;;;;;;;;;;;;;6151504;23;19905;-94
2023/09/29 00:40:11;;;;;;;;;;;;;;;;;;6152899;23;19931;-94
2023/09/29 00:42:38;;;;;;;;;;;;;;;;;;6151506;23;20357;-94
2023/09/29 00:45:04;;;;;;;;;;;;;;;;;;6152529;23;19912;-94
2023/09/29 00:47:31;;;;;;;;;;;;;;;;;;6152676;23;19913;-94
2023/09/29 00:50:07;;;;;;;;;;;;;;;;;;6151748;23;20556;-95
2023/09/29 00:52:33;;;;;;;;;;;;;;;;;;6151004;23;20375;-93
2023/09/29 00:54:59;;;;;;;;;;;;;;;;;;6152280;23;19915;-94
2023/09/29 00:57:25;;;;;;;;;;;;;;;;;;6152417;23;19909;-94
2023/09/29 00:59:51;;;;;;;;;;;;;;;;;;6151472;23;19912;-94
2023/09/29 01:02:17;;;;;;;;;;;;;;;;;;6152233;23;19908;-94
2023/09/29 01:04:48;;;;;;;;;;;;;;;;;;6151860;23;20556;-94
2023/09/29 01:07:15;;;;;;;;;;;;;;;;;;6151537;23;19920;-94
2023/09/29 01:09:41;;;;;;;;;;;;;;;;;;6149207;23;19917;-93
2023/09/29 01:12:10;;;;;;;;;;;;;;;;;;6151061;23;19908;-94
2023/09/29 01:14:35;;;;;;;;;;;;;;;;;;6152297;23;20450;-94
2023/09/29 01:17:02;;;;;;;;;;;;;;;;;;6127043;23;19912;-92
2023/09/29 01:19:28;;;;;;;;;;;;;;;;;;6126147;23;19980;-93
2023/09/29 01:21:53;;;;;;;;;;;;;;;;;;6123284;23;20306;-92
2023/09/29 01:24:21;;;;;;;;;;;;;;;;;;6125762;23;19939;-93
2023/09/29 01:26:48;;;;;;;;;;;;;;;;;;6124344;23;19908;-93
2023/09/29 01:29:15;;;;;;;;;;;;;;;;;;6126786;23;19964;-94
2023/09/29 01:31:41;;;;;;;;;;;;;;;;;;6126617;23;19913;-94
2023/09/29 01:34:07;;;;;;;;;;;;;;;;;;6127027;23;19912;-94
2023/09/29 01:36:33;;;;;;;;;;;;;;;;;;6152234;23;19908;-94
2023/09/29 01:38:59;;;;;;;;;;;;;;;;;;6127555;23;19909;-93
2023/09/29 01:41:25;;;;;;;;;;;;;;;;;;6125444;23;19909;-93
2023/09/29 01:43:52;;;;;;;;;;;;;;;;;;6128407;23;19947;-94
2023/09/29 01:46:18;;;;;;;;;;;;;;;;;;6126896;23;19904;-94
2023/09/29 01:48:44;;;;;;;;;;;;;;;;;;6125757;23;20406;-94
2023/09/29 01:51:11;;;;;;;;;;;;;;;;;;6125920;23;20356;-94
2023/09/29 01:53:37;;;;;;;;;;;;;;;;;;6125430;23;19909;-93
2023/09/29 01:56:03;;;;;;;;;;;;;;;;;;6152573;23;19908;-94
2023/09/29 01:58:31;;;;;;;;;;;;;;;;;;6127709;23;19960;-94
2023/09/29 02:00:56;;;;;;;;;;;;;;;;;;6126843;23;19943;-94
2023/09/29 02:03:23;;;;;;;;;;;;;;;;;;6124525;23;19909;-93
2023/09/29 02:05:50;;;;;;;;;;;;;;;;;;6127675;23;19915;-94
2023/09/29 02:08:18;;;;;;;;;;;;;;;;;;6124761;23;19923;-94
2023/09/29 02:10:48;;;;;;;;;;;;;;;;;;6129605;23;19956;-92
2023/09/29 02:13:15;;;;;;;;;;;;;;;;;;6128858;23;19919;-94
2023/09/29 02:15:41;;;;;;;;;;;;;;;;;;6137782;23;19999;-94
2023/09/29 02:18:09;;;;;;;;;;;;;;;;;;6153531;23;19905;-94
2023/09/29 02:20:36;;;;;;;;;;;;;;;;;;6154607;23;19944;-94
2023/09/29 02:23:02;;;;;;;;;;;;;;;;;;6153120;23;19912;-92
2023/09/29 02:25:29;;;;;;;;;;;;;;;;;;6153625;23;19905;-94
2023/09/29 02:27:55;;;;;;;;;;;;;;;;;;6152176;23;19976;-94
2023/09/29 02:30:21;;;;;;;;;;;;;;;;;;6154668;23;20011;-94
2023/09/29 02:32:48;;;;;;;;;;;;;;;;;;6153868;23;19911;-94
2023/09/29 02:35:16;;;;;;;;;;;;;;;;;;6155868;23;19912;-93
2023/09/29 02:37:42;;;;;;;;;;;;;;;;;;6152383;23;19908;-94
2023/09/29 02:40:14;;;;;;;;;;;;;;;;;;6155350;23;19956;-95
2023/09/29 02:42:40;;;;;;;;;;;;;;;;;;6153660;23;20128;-94
2023/09/29 02:45:06;;;;;;;;;;;;;;;;;;6152509;23;19905;-94
2023/09/29 02:47:35;;;;;;;;;;;;;;;;;;6154230;23;19905;-94
2023/09/29 02:50:02;;;;;;;;;;;;;;;;;;6153447;23;19908;-94
2023/09/29 02:52:28;;;;;;;;;;;;;;;;;;6155134;23;19904;-94
2023/09/29 02:54:54;;;;;;;;;;;;;;;;;;6153163;23;20334;-94
2023/09/29 02:57:21;;;;;;;;;;;;;;;;;;6152747;23;19964;-94
2023/09/29 02:59:46;;;;;;;;;;;;;;;;;;6153899;23;20255;-93
2023/09/29 03:02:12;;;;;;;;;;;;;;;;;;6154468;23;19940;-95
2023/09/29 03:04:39;;;;;;;;;;;;;;;;;;6154253;23;19905;-94
2023/09/29 03:07:05;;;;;;;;;;;;;;;;;;6153642;23;19905;-93
2023/09/29 03:09:33;;;;;;;;;;;;;;;;;;6152271;23;20290;-93
2023/09/29 03:12:00;;;;;;;;;;;;;;;;;;6152570;23;19936;-94
2023/09/29 03:14:26;;;;;;;;;;;;;;;;;;6152526;23;19905;-93
2023/09/29 03:16:53;;;;;;;;;;;;;;;;;;6154706;23;19919;-94
2023/09/29 03:19:19;;;;;;;;;;;;;;;;;;6152328;23;20287;-94
2023/09/29 03:21:45;;;;;;;;;;;;;;;;;;6152625;23;19908;-94
2023/09/29 03:24:11;;;;;;;;;;;;;;;;;;6151209;23;19904;-94
2023/09/29 03:26:37;;;;;;;;;;;;;;;;;;6154130;23;19904;-95
2023/09/29 03:29:04;;;;;;;;;;;;;;;;;;6152157;23;20022;-94
2023/09/29 03:31:36;;;;;;;;;;;;;;;;;;6153357;23;20363;-93
2023/09/29 03:34:02;;;;;;;;;;;;;;;;;;6153886;23;19999;-94
2023/09/29 03:36:28;;;;;;;;;;;;;;;;;;6152519;23;19904;-94
2023/09/29 03:38:54;;;;;;;;;;;;;;;;;;6153735;23;19996;-93
2023/09/29 03:41:23;;;;;;;;;;;;;;;;;;6151264;23;19908;-94
2023/09/29 03:43:49;;;;;;;;;;;;;;;;;;6153483;23;19962;-94
2023/09/29 03:46:15;;;;;;;;;;;;;;;;;;6151081;23;20322;-94
2023/09/29 03:48:46;;;;;;;;;;;;;;;;;;6151724;23;19995;-92
2023/09/29 03:51:11;;;;;;;;;;;;;;;;;;6150636;23;19963;-92
2023/09/29 03:53:38;;;;;;;;;;;;;;;;;;6151311;23;20307;-92
2023/09/29 03:56:04;;;;;;;;;;;;;;;;;;6150597;23;19912;-93
2023/09/29 03:58:30;;;;;;;;;;;;;;;;;;6151123;23;19909;-92
2023/09/29 04:00:56;;;;;;;;;;;;;;;;;;6149893;23;19915;-92
2023/09/29 04:03:22;;;;;;;;;;;;;;;;;;6150898;23;19924;-93
2023/09/29 04:05:49;;;;;;;;;;;;;;;;;;6148943;23;19919;-93
2023/09/29 04:08:14;;;;;;;;;;;;;;;;;;6149119;23;19980;-92
2023/09/29 04:10:40;;;;;;;;;;;;;;;;;;6150884;23;19908;-92
2023/09/29 04:13:06;;;;;;;;;;;;;;;;;;6150130;23;19916;-93
2023/09/29 04:15:32;;;;;;;;;;;;;;;;;;6150033;23;19913;-93
2023/09/29 04:17:58;;;;;;;;;;;;;;;;;;6151153;23;19915;-93
2023/09/29 04:20:24;;;;;;;;;;;;;;;;;;6152201;23;20386;-92
2023/09/29 04:22:50;;;;;;;;;;;;;;;;;;6150601;23;19936;-92
2023/09/29 04:25:16;;;;;;;;;;;;;;;;;;6150810;23;19936;-92
2023/09/29 04:27:42;;;;;;;;;;;;;;;;;;6150115;23;19915;-93
2023/09/29 04:30:08;;;;;;;;;;;;;;;;;;6152038;23;19947;-92
2023/09/29 04:32:34;;;;;;;;;;;;;;;;;;6150994;23;20435;-93
2023/09/29 04:35:00;;;;;;;;;;;;;;;;;;6150897;23;19943;-93
2023/09/29 04:37:26;;;;;;;;;;;;;;;;;;6150510;23;20019;-93
2023/09/29 04:39:52;;;;;;;;;;;;;;;;;;6151375;23;19909;-93
2023/09/29 04:42:18;;;;;;;;;;;;;;;;;;6148747;23;19908;-92
2023/09/29 04:44:44;;;;;;;;;;;;;;;;;;6151135;23;19919;-93
2023/09/29 04:47:10;;;;;;;;;;;;;;;;;;6153335;23;19909;-94
2023/09/29 04:49:36;;;;;;;;;;;;;;;;;;6152990;23;19939;-94
2023/09/29 04:52:03;;;;;;;;;;;;;;;;;;6151576;23;19905;-93
2023/09/29 04:54:29;;;;;;;;;;;;;;;;;;6149700;23;19908;-94
2023/09/29 04:56:55;;;;;;;;;;;;;;;;;;6152485;23;19909;-94
2023/09/29 04:59:21;;;;;;;;;;;;;;;;;;6150966;23;20016;-94
2023/09/29 05:01:47;;;;;;;;;;;;;;;;;;6150768;23;20235;-94
2023/09/29 05:04:13;;;;;;;;;;;;;;;;;;6151668;23;19911;-95
2023/09/29 05:06:39;;;;;;;;;;;;;;;;;;6154484;23;19908;-94
2023/09/29 05:09:06;;;;;;;;;;;;;;;;;;6153312;23;19919;-95
2023/09/29 05:11:31;;;;;;;;;;;;;;;;;;6154182;23;19909;-94
2023/09/29 05:13:57;;;;;;;;;;;;;;;;;;6150488;23;19905;-95
2023/09/29 05:16:24;;;;;;;;;;;;;;;;;;6152230;23;19917;-96
2023/09/29 05:18:53;;;;;;;;;;;;;;;;;;6154155;23;19908;-95
2023/09/29 05:21:19;;;;;;;;;;;;;;;;;;6152030;23;20247;-93
2023/09/29 05:23:45;;;;;;;;;;;;;;;;;;6151520;23;19916;-94
2023/09/29 05:26:11;;;;;;;;;;;;;;;;;;6152262;23;19909;-94
2023/09/29 05:28:40;;;;;;;;;;;;;;;;;;6152298;23;19960;-94
2023/09/29 05:31:06;;;;;;;;;;;;;;;;;;6153523;23;19904;-94
2023/09/29 05:33:32;;;;;;;;;;;;;;;;;;6152034;23;20365;-94
2023/09/29 05:35:58;;;;;;;;;;;;;;;;;;6151292;23;19904;-94
2023/09/29 05:38:24;;;;;;;;;;;;;;;;;;6151859;23;20183;-94
2023/09/29 05:40:50;;;;;;;;;;;;;;;;;;6152195;23;19991;-94
2023/09/29 05:43:16;;;;;;;;;;;;;;;;;;6153961;23;20235;-94
2023/09/29 05:45:42;;;;;;;;;;;;;;;;;;6152836;23;19905;-93
2023/09/29 05:48:08;;;;;;;;;;;;;;;;;;6153248;23;19904;-94
2023/09/29 05:50:34;;;;;;;;;;;;;;;;;;6152455;23;20121;-93
2023/09/29 05:53:00;;;;;;;;;;;;;;;;;;6150146;23;19932;-93
2023/09/29 05:55:25;;;;;;;;;;;;;;;;;;6150985;23;20343;-93
2023/09/29 05:57:51;;;;;;;;;;;;;;;;;;6152180;23;20157;-93
2023/09/29 06:00:17;;;;;;;;;;;;;;;;;;6151741;23;19931;-94
2023/09/29 06:02:43;;;;;;;;;;;;;;;;;;6151295;23;19905;-93
2023/09/29 06:05:09;;;;;;;;;;;;;;;;;;6152297;23;19905;-94
2023/09/29 06:07:35;;;;;;;;;;;;;;;;;;6150808;23;19960;-94
2023/09/29 06:10:01;;;;;;;;;;;;;;;;;;6152697;23;20045;-94
2023/09/29 06:12:27;;;;;;;;;;;;;;;;;;6151771;23;19908;-93
2023/09/29 06:14:59;;;;;;;;;;;;;;;;;;6150641;23;20583;-93
2023/09/29 06:17:25;;;;;;;;;;;;;;;;;;6151522;23;19963;-93
2023/09/29 06:19:57;;;;;;;;;;;;;;;;;;6153265;23;19905;-93
2023/09/29 06:22:23;;;;;;;;;;;;;;;;;;6152133;23;19913;-93
2023/09/29 06:24:49;;;;;;;;;;;;;;;;;;6152320;23;19909;-93
2023/09/29 06:27:15;;;;;;;;;;;;;;;;;;6151854;23;19908;-94
2023/09/29 06:29:41;;;;;;;;;;;;;;;;;;6153251;23;19927;-93
2023/09/29 06:32:09;;;;;;;;;;;;;;;;;;6151625;23;19911;-93
2023/09/29 06:34:34;;;;;;;;;;;;;;;;;;6151084;23;19952;-94
2023/09/29 06:37:00;;;;;;;;;;;;;;;;;;6150363;23;19928;-93
2023/09/29 06:39:27;;;;;;;;;;;;;;;;;;6150990;23;19936;-93
2023/09/29 06:41:53;;;;;;;;;;;;;;;;;;6151203;23;19905;-93
2023/09/29 06:44:18;;;;;;;;;;;;;;;;;;6150397;23;20378;-93
2023/09/29 06:46:44;;;;;;;;;;;;;;;;;;6150896;23;19932;-93
2023/09/29 06:49:10;;;;;;;;;;;;;;;;;;6151973;23;20034;-93
2023/09/29 06:51:36;;;;;;;;;;;;;;;;;;6151600;23;19915;-94
2023/09/29 06:54:02;;;;;;;;;;;;;;;;;;6150736;23;19999;-94
2023/09/29 06:56:28;;;;;;;;;;;;;;;;;;6152372;23;19915;-93
2023/09/29 06:58:54;;;;;;;;;;;;;;;;;;6154491;23;19912;-93
2023/09/29 07:01:21;;;;;;;;;;;;;;;;;;6154428;23;19959;-93
2023/09/29 07:03:47;;;;;;;;;;;;;;;;;;6154268;23;19904;-93
2023/09/29 07:06:13;;;;;;;;;;;;;;;;;;6160953;23;19908;-96
2023/09/29 07:08:39;;;;;;;;;;;;;;;;;;6155948;23;19936;-94
2023/09/29 07:11:08;;;;;;;;;;;;;;;;;;6165405;23;19953;-94
2023/09/29 07:13:34;;;;;;;;;;;;;;;;;;6155774;23;19938;-95
2023/09/29 07:16:00;;;;;;;;;;;;;;;;;;6158414;23;19957;-94
2023/09/29 07:18:26;;;;;;;;;;;;;;;;;;6135186;23;19917;-92
2023/09/29 07:20:53;;;;;;;;;;;;;;;;;;6132419;23;19957;-92
2023/09/29 07:23:19;;;;;;;;;;;;;;;;;;6133147;23;19927;-93
2023/09/29 07:25:45;;;;;;;;;;;;;;;;;;6132223;23;20414;-92
2023/09/29 07:28:13;;;;;;;;;;;;;;;;;;6132976;23;19915;-92
2023/09/29 07:30:39;;;;;;;;;;;;;;;;;;6132004;23;19905;-91
2023/09/29 07:33:05;;;;;;;;;;;;;;;;;;6130829;23;19909;-91
2023/09/29 07:35:31;;;;;;;;;;;;;;;;;;6129366;23;19909;-92
2023/09/29 07:37:56;;;;;;;;;;;;;;;;;;6129609;23;19905;-93
2023/09/29 07:40:22;;;;;;;;;;;;;;;;;;6128841;23;19904;-92
2023/09/29 07:42:48;;;;;;;;;;;;;;;;;;6130000;23;19915;-93
2023/09/29 07:45:15;;;;;;;;;;;;;;;;;;6127465;23;19932;-92
2023/09/29 07:47:41;;;;;;;;;;;;;;;;;;6129227;23;19908;-93
2023/09/29 07:50:07;;;;;;;;;;;;;;;;;;6128328;23;19936;-92
2023/09/29 07:52:37;;;;;;;;;;;;;;;;;;6154600;23;19908;-93
2023/09/29 07:55:03;;;;;;;;;;;;;;;;;;6127705;23;19911;-93
2023/09/29 07:57:29;;;;;;;;;;;;;;;;;;6129018;23;19939;-93
2023/09/29 07:59:55;;;;;;;;;;;;;;;;;;6129306;23;20294;-91
2023/09/29 08:02:23;;;;;;;;;;;;;;;;;;6128487;23;19909;-92
2023/09/29 08:04:49;;;;;;;;;;;;;;;;;;6128737;23;20438;-93
2023/09/29 08:07:19;;;;;;;;;;;;;;;;;;6128071;23;19909;-93
2023/09/29 08:09:48;;;;;;;;;;;;;;;;;;6127832;23;19912;-92
2023/09/29 08:12:14;;;;;;;;;;;;;;;;;;6128298;23;19974;-92
2023/09/29 08:14:40;;;;;;;;;;;;;;;;;;6127603;23;19909;-92
2023/09/29 08:17:06;;;;;;;;;;;;;;;;;;6134601;23;20080;-92
2023/09/29 08:19:32;;;;;;;;;;;;;;;;;;6153892;23;19909;-93
2023/09/29 08:21:58;;;;;;;;;;;;;;;;;;6154423;23;19908;-92
2023/09/29 08:24:23;;;;;;;;;;;;;;;;;;6153688;23;19912;-93
2023/09/29 08:26:49;;;;;;;;;;;;;;;;;;6153917;23;19944;-93
2023/09/29 08:29:16;;;;;;;;;;;;;;;;;;6154094;23;19963;-93
2023/09/29 08:31:42;;;;;;;;;;;;;;;;;;6153173;23;19909;-93
2023/09/29 08:34:08;;;;;;;;;;;;;;;;;;6153514;23;19955;-93
2023/09/29 08:36:34;;;;;;;;;;;;;;;;;;6153383;23;19908;-92
2023/09/29 08:39:00;;;;;;;;;;;;;;;;;;6152404;23;19912;-93
2023/09/29 08:41:27;;;;;;;;;;;;;;;;;;6153981;23;19908;-92
2023/09/29 08:43:53;;;;;;;;;;;;;;;;;;6152501;23;20311;-92
2023/09/29 08:46:20;;;;;;;;;;;;;;;;;;6152870;23;19924;-92
2023/09/29 08:48:46;;;;;;;;;;;;;;;;;;6152928;23;20258;-92
2023/09/29 08:51:12;;;;;;;;;;;;;;;;;;6153871;23;19957;-92
2023/09/29 08:53:38;;;;;;;;;;;;;;;;;;6151367;23;19909;-92
2023/09/29 08:56:11;;;;;;;;;;;;;;;;;;6153919;23;20253;-92
2023/09/29 08:58:37;;;;;;;;;;;;;;;;;;6153527;23;20541;-92
2023/09/29 09:01:03;;;;;;;;;;;;;;;;;;6152900;23;19927;-92
2023/09/29 09:03:29;;;;;;;;;;;;;;;;;;6153526;23;19984;-92
2023/09/29 09:05:55;;;;;;;;;;;;;;;;;;6151027;23;19919;-92
2023/09/29 09:08:21;;;;;;;;;;;;;;;;;;6152342;23;19940;-92
2023/09/29 09:10:47;;;;;;;;;;;;;;;;;;6152148;23;19908;-92
2023/09/29 09:13:13;;;;;;;;;;;;;;;;;;6151508;23;19984;-92
2023/09/29 09:15:39;;;;;;;;;;;;;;;;;;6151860;23;19974;-92
2023/09/29 09:18:05;;;;;;;;;;;;;;;;;;6152115;23;19991;-92
2023/09/29 09:20:31;;;;;;;;;;;;;;;;;;6151771;23;20035;-92
2023/09/29 09:22:57;;;;;;;;;;;;;;;;;;6151857;23;19980;-92
2023/09/29 09:25:23;;;;;;;;;;;;;;;;;;6151592;23;19909;-92
2023/09/29 09:27:52;;;;;;;;;;;;;;;;;;6152239;23;20339;-92
2023/09/29 09:30:18;;;;;;;;;;;;;;;;;;6153160;23;19916;-92
2023/09/29 09:32:44;;;;;;;;;;;;;;;;;;6151512;23;20587;-93
2023/09/29 09:35:10;;;;;;;;;;;;;;;;;;6150971;23;19912;-92
2023/09/29 09:37:36;;;;;;;;;;;;;;;;;;6153022;23;19909;-92
2023/09/29 09:40:05;;;;;;;;;;;;;;;;;;6150938;23;20373;-92
2023/09/29 09:42:31;;;;;;;;;;;;;;;;;;6151943;23;19979;-93
2023/09/29 09:45:00;;;;;;;;;;;;;;;;;;6151379;23;20355;-92
2023/09/29 09:47:33;;;;;;;;;;;;;;;;;;6152042;23;19908;-92
2023/09/29 09:49:59;;;;;;;;;;;;;;;;;;6151732;23;19917;-93
2023/09/29 09:52:25;;;;;;;;;;;;;;;;;;6151994;23;19909;-93
2023/09/29 09:54:51;;;;;;;;;;;;;;;;;;6151719;23;19987;-92
2023/09/29 09:57:18;;;;;;;;;;;;;;;;;;6151351;23;19947;-93
2023/09/29 09:59:45;;;;;;;;;;;;;;;;;;6151828;23;19967;-94
2023/09/29 10:02:11;;;;;;;;;;;;;;;;;;6150830;23;20287;-92
2023/09/29 10:04:43;;;;;;;;;;;;;;;;;;6151926;23;20323;-92
2023/09/29 10:07:08;;;;;;;;;;;;;;;;;;6152323;23;19916;-92
2023/09/29 10:09:34;;;;;;;;;;;;;;;;;;6150122;23;19913;-92
2023/09/29 10:12:01;;;;;;;;;;;;;;;;;;6151177;23;19909;-92
2023/09/29 10:14:27;;;;;;;;;;;;;;;;;;6150310;23;19904;-92
2023/09/29 10:16:53;;;;;;;;;;;;;;;;;;6151571;23;19916;-92
2023/09/29 10:19:19;;;;;;;;;;;;;;;;;;6150951;23;20405;-92
2023/09/29 10:21:49;;;;;;;;;;;;;;;;;;6152523;23;19908;-92
2023/09/29 10:24:17;;;;;;;;;;;;;;;;;;6150397;23;19919;-94
2023/09/29 10:26:43;;;;;;;;;;;;;;;;;;6151167;23;19975;-92
2023/09/29 10:29:10;;;;;;;;;;;;;;;;;;6151456;23;20324;-92
2023/09/29 10:31:36;;;;;;;;;;;;;;;;;;6151635;23;19931;-92
2023/09/29 10:34:02;;;;;;;;;;;;;;;;;;6153404;23;19908;-92
2023/09/29 10:36:28;;;;;;;;;;;;;;;;;;6153596;23;19983;-92
2023/09/29 10:38:57;;;;;;;;;;;;;;;;;;6152367;23;20406;-92
2023/09/29 10:41:23;;;;;;;;;;;;;;;;;;6153115;23;20224;-92
2023/09/29 10:43:50;;;;;;;;;;;;;;;;;;6153204;23;19924;-93
2023/09/29 10:46:16;;;;;;;;;;;;;;;;;;6153585;23;19913;-92
2023/09/29 10:48:42;;;;;;;;;;;;;;;;;;6154119;23;19932;-92
2023/09/29 10:51:07;;;;;;;;;;;;;;;;;;6154242;23;19905;-92
2023/09/29 10:53:33;;;;;;;;;;;;;;;;;;6151831;23;20239;-93
2023/09/29 10:56:00;;;;;;;;;;;;;;;;;;6152718;23;19908;-92
2023/09/29 10:58:27;;;;;;;;;;;;;;;;;;6152531;23;19905;-92
2023/09/29 11:00:53;;;;;;;;;;;;;;;;;;6154397;23;19905;-93
2023/09/29 11:03:19;;;;;;;;;;;;;;;;;;6151691;23;19958;-93
2023/09/29 11:05:45;;;;;;;;;;;;;;;;;;6152676;23;19913;-93
2023/09/29 11:08:11;;;;;;;;;;;;;;;;;;6152571;23;19984;-92
2023/09/29 11:10:37;;;;;;;;;;;;;;;;;;6152165;23;20350;-93
2023/09/29 11:13:03;;;;;;;;;;;;;;;;;;6153006;23;19988;-93
2023/09/29 11:15:29;;;;;;;;;;;;;;;;;;6151915;23;19911;-92
2023/09/29 11:17:55;;;;;;;;;;;;;;;;;;6152992;23;20189;-92
2023/09/29 11:20:27;;;;;;;;;;;;;;;;;;6151629;23;19915;-92
2023/09/29 11:22:53;;;;;;;;;;;;;;;;;;6152884;23;20331;-92
2023/09/29 11:25:19;;;;;;;;;;;;;;;;;;6152190;23;19955;-92
2023/09/29 11:27:46;;;;;;;;;;;;;;;;;;6152209;23;20332;-93
2023/09/29 11:30:12;;;;;;;;;;;;;;;;;;6151503;23;19916;-90
2023/09/29 11:32:39;;;;;;;;;;;;;;;;;;6155064;23;20320;-93
2023/09/29 11:35:13;;;;;;;;;;;;;;;;;;6154816;23;19919;-92
2023/09/29 11:37:39;;;;;;;;;;;;;;;;;;6154828;23;19904;-92
2023/09/29 11:40:10;;;;;;;;;;;;;;;;;;6153301;23;19931;-92
2023/09/29 11:42:36;;;;;;;;;;;;;;;;;;6151911;23;19905;-92
2023/09/29 11:45:07;;;;;;;;;;;;;;;;;;6153549;23;19905;-96
2023/09/29 11:47:33;;;;;;;;;;;;;;;;;;6152881;23;19915;-93
2023/09/29 11:50:00;;;;;;;;;;;;;;;;;;6151342;23;19951;-94
2023/09/29 11:52:26;;;;;;;;;;;;;;;;;;6153859;23;19948;-94
2023/09/29 11:54:52;;;;;;;;;;;;;;;;;;6152784;23;20383;-94
2023/09/29 11:57:18;;;;;;;;;;;;;;;;;;6154750;23;19911;-95
2023/09/29 11:59:45;;;;;;;;;;;;;;;;;;6156250;23;20283;-95
2023/09/29 12:02:11;;;;;;;;;;;;;;;;;;6154795;23;20041;-95
2023/09/29 12:04:37;;;;;;;;;;;;;;;;;;6154169;23;20357;-94
2023/09/29 12:07:04;;;;;;;;;;;;;;;;;;6153668;23;19905;-94
2023/09/29 12:09:30;;;;;;;;;;;;;;;;;;6152781;23;19952;-94
2023/09/29 12:11:56;;;;;;;;;;;;;;;;;;6153584;23;19940;-95
2023/09/29 12:14:28;;;;;;;;;;;;;;;;;;6151759;23;19913;-94
2023/09/29 12:16:54;;;;;;;;;;;;;;;;;;6153990;23;19912;-94
2023/09/29 12:19:20;;;;;;;;;;;;;;;;;;6150808;23;19963;-93
2023/09/29 12:21:47;;;;;;;;;;;;;;;;;;6152892;23;19916;-94
2023/09/29 12:24:14;;;;;;;;;;;;;;;;;;6154024;23;20394;-94
2023/09/29 12:26:46;;;;;;;;;;;;;;;;;;6155608;23;19909;-95
2023/09/29 12:29:12;;;;;;;;;;;;;;;;;;6155025;23;19916;-95
2023/09/29 12:31:38;;;;;;;;;;;;;;;;;;6156771;23;19909;-94
2023/09/29 12:34:04;;;;;;;;;;;;;;;;;;6153083;23;19908;-95
2023/09/29 12:36:30;;;;;;;;;;;;;;;;;;6153598;23;19912;-94
2023/09/29 12:38:56;;;;;;;;;;;;;;;;;;6151259;23;20586;-94
2023/09/29 12:41:22;;;;;;;;;;;;;;;;;;6152087;23;19904;-93
2023/09/29 12:43:48;;;;;;;;;;;;;;;;;;6152108;23;20432;-94
2023/09/29 12:46:15;;;;;;;;;;;;;;;;;;6152296;23;19904;-94
2023/09/29 12:48:41;;;;;;;;;;;;;;;;;;6152376;23;19919;-95
2023/09/29 12:51:07;;;;;;;;;;;;;;;;;;6152869;23;19908;-95
2023/09/29 12:53:33;;;;;;;;;;;;;;;;;;6151720;23;20327;-94
2023/09/29 12:55:59;;;;;;;;;;;;;;;;;;6151412;23;19908;-93
2023/09/29 12:58:25;;;;;;;;;;;;;;;;;;6149867;23;19975;-93
2023/09/29 13:00:51;;;;;;;;;;;;;;;;;;6150193;23;19912;-93
2023/09/29 13:03:17;;;;;;;;;;;;;;;;;;6147760;23;19936;-94
2023/09/29 13:05:50;;;;;;;;;;;;;;;;;;6150802;23;19905;-93
2023/09/29 13:08:16;;;;;;;;;;;;;;;;;;6150340;23;19913;-92
2023/09/29 13:10:42;;;;;;;;;;;;;;;;;;6148899;23;19919;-92
2023/09/29 13:13:08;;;;;;;;;;;;;;;;;;6150159;23;19967;-91
2023/09/29 13:15:34;;;;;;;;;;;;;;;;;;6149737;23;19904;-92
2023/09/29 13:18:00;;;;;;;;;;;;;;;;;;6151168;23;19917;-91
2023/09/29 13:20:26;;;;;;;;;;;;;;;;;;6152040;23;20236;-91
2023/09/29 13:22:52;;;;;;;;;;;;;;;;;;6149727;23;20501;-91
2023/09/29 13:25:18;;;;;;;;;;;;;;;;;;6149503;23;19905;-91
2023/09/29 13:27:44;;;;;;;;;;;;;;;;;;6149207;23;19911;-91
2023/09/29 13:30:11;;;;;;;;;;;;;;;;;;6150174;23;19917;-91
2023/09/29 13:32:37;;;;;;;;;;;;;;;;;;6149668;23;19944;-92
2023/09/29 13:35:03;;;;;;;;;;;;;;;;;;6151933;23;19920;-92
2023/09/29 13:37:29;;;;;;;;;;;;;;;;;;6152005;23;19915;-91
2023/09/29 13:39:56;;;;;;;;;;;;;;;;;;6149317;23;19908;-92
2023/09/29 13:42:23;;;;;;;;;;;;;;;;;;6150528;23;19947;-92
2023/09/29 13:44:49;;;;;;;;;;;;;;;;;;6151296;23;20362;-92
2023/09/29 13:47:15;;;;;;;;;;;;;;;;;;6150607;23;19909;-92
2023/09/29 13:49:41;;;;;;;;;;;;;;;;;;6151213;23;19916;-92
2023/09/29 13:52:07;;;;;;;;;;;;;;;;;;6150514;23;19908;-92
2023/09/29 13:54:33;;;;;;;;;;;;;;;;;;6150079;23;19908;-92
2023/09/29 13:56:59;;;;;;;;;;;;;;;;;;6150594;23;19909;-91
2023/09/29 13:59:25;;;;;;;;;;;;;;;;;;6150790;23;19920;-93
2023/09/29 14:01:51;;;;;;;;;;;;;;;;;;6150520;23;19984;-92
2023/09/29 14:04:18;;;;;;;;;;;;;;;;;;6151178;23;19980;-92
2023/09/29 14:06:43;;;;;;;;;;;;;;;;;;6152494;23;19924;-92
2023/09/29 14:09:12;;;;;;;;;;;;;;;;;;6151929;23;19947;-92
2023/09/29 14:11:38;;;;;;;;;;;;;;;;;;6152677;23;19980;-92
2023/09/29 14:14:04;;;;;;;;;;;;;;;;;;6151260;23;19940;-92
2023/09/29 14:16:30;;;;;;;;;;;;;;;;;;6152348;23;19928;-93
2023/09/29 14:18:56;;;;;;;;;;;;;;;;;;6153384;23;20016;-94
2023/09/29 14:21:22;;;;;;;;;;;;;;;;;;6152029;23;20327;-94
2023/09/29 14:23:48;;;;;;;;;;;;;;;;;;6152946;23;19927;-94
2023/09/29 14:26:14;;;;;;;;;;;;;;;;;;6152158;23;19909;-94
2023/09/29 14:28:40;;;;;;;;;;;;;;;;;;6153960;23;20398;-94
2023/09/29 14:31:07;;;;;;;;;;;;;;;;;;6151824;23;20378;-94
2023/09/29 14:33:33;;;;;;;;;;;;;;;;;;6152073;23;19905;-94
2023/09/29 14:35:59;;;;;;;;;;;;;;;;;;6153015;23;20323;-93
2023/09/29 14:38:25;;;;;;;;;;;;;;;;;;6153334;23;19909;-92
2023/09/29 14:40:50;;;;;;;;;;;;;;;;;;6152760;23;19909;-93
2023/09/29 14:43:17;;;;;;;;;;;;;;;;;;6153522;23;19908;-93
2023/09/29 14:45:44;;;;;;;;;;;;;;;;;;6153154;23;19933;-93
2023/09/29 14:48:13;;;;;;;;;;;;;;;;;;6152941;23;19919;-93
2023/09/29 14:50:40;;;;;;;;;;;;;;;;;;6154675;23;19909;-93
2023/09/29 14:53:05;;;;;;;;;;;;;;;;;;6152914;23;19947;-94
2023/09/29 14:55:31;;;;;;;;;;;;;;;;;;6152534;23;19927;-93
2023/09/29 14:57:57;;;;;;;;;;;;;;;;;;6153425;23;20256;-94
2023/09/29 15:00:23;;;;;;;;;;;;;;;;;;6153386;23;19939;-93
2023/09/29 15:02:49;;;;;;;;;;;;;;;;;;6153751;23;19939;-93
2023/09/29 15:05:15;;;;;;;;;;;;;;;;;;6153107;23;19913;-93
2023/09/29 15:07:41;;;;;;;;;;;;;;;;;;6153207;23;19908;-93
2023/09/29 15:10:08;;;;;;;;;;;;;;;;;;6152311;23;19912;-93
2023/09/29 15:12:34;;;;;;;;;;;;;;;;;;6152184;23;20300;-93
2023/09/29 15:15:00;;;;;;;;;;;;;;;;;;6151780;23;19911;-93
2023/09/29 15:17:28;;;;;;;;;;;;;;;;;;6152711;23;19928;-93
2023/09/29 15:19:54;;;;;;;;;;;;;;;;;;6153769;23;19913;-93
2023/09/29 15:22:25;;;;;;;;;;;;;;;;;;6152334;23;19912;-93
2023/09/29 15:24:51;;;;;;;;;;;;;;;;;;6152272;23;19909;-93
2023/09/29 15:27:17;;;;;;;;;;;;;;;;;;6154345;23;20402;-93
2023/09/29 15:29:43;;;;;;;;;;;;;;;;;;6152547;23;20354;-93
2023/09/29 15:32:09;;;;;;;;;;;;;;;;;;6153065;23;19908;-94
2023/09/29 15:34:35;;;;;;;;;;;;;;;;;;6152831;23;20112;-92
2023/09/29 15:37:01;;;;;;;;;;;;;;;;;;6153300;23;19909;-93
2023/09/29 15:39:27;;;;;;;;;;;;;;;;;;6152570;23;20390;-92
2023/09/29 15:41:53;;;;;;;;;;;;;;;;;;6152580;23;19908;-92
2023/09/29 15:44:19;;;;;;;;;;;;;;;;;;6154181;23;19905;-93
2023/09/29 15:46:45;;;;;;;;;;;;;;;;;;6153903;23;20000;-93
2023/09/29 15:49:12;;;;;;;;;;;;;;;;;;6154389;23;19908;-93
2023/09/29 15:51:38;;;;;;;;;;;;;;;;;;6152909;23;19904;-93
2023/09/29 15:54:04;;;;;;;;;;;;;;;;;;6151530;23;19916;-93
2023/09/29 15:56:30;;;;;;;;;;;;;;;;;;6150182;23;19916;-93
2023/09/29 15:58:56;;;;;;;;;;;;;;;;;;6153876;23;19913;-92
2023/09/29 16:01:22;;;;;;;;;;;;;;;;;;6150968;23;19908;-93
2023/09/29 16:03:48;;;;;;;;;;;;;;;;;;6150663;23;19927;-93
2023/09/29 16:06:14;;;;;;;;;;;;;;;;;;6151793;23;20327;-93
2023/09/29 16:08:41;;;;;;;;;;;;;;;;;;6152107;23;19920;-94
2023/09/29 16:11:07;;;;;;;;;;;;;;;;;;6150713;23;20266;-92
2023/09/29 16:13:34;;;;;;;;;;;;;;;;;;6149887;23;19921;-93
2023/09/29 16:16:00;;;;;;;;;;;;;;;;;;6149258;23;19948;-93
2023/09/29 16:18:26;;;;;;;;;;;;;;;;;;6152155;23;19950;-93
2023/09/29 16:20:52;;;;;;;;;;;;;;;;;;6150972;23;19916;-93
2023/09/29 16:23:18;;;;;;;;;;;;;;;;;;6151267;23;19909;-93
2023/09/29 16:25:44;;;;;;;;;;;;;;;;;;6150281;23;19935;-93
2023/09/29 16:28:10;;;;;;;;;;;;;;;;;;6151518;23;19958;-93
2023/09/29 16:30:36;;;;;;;;;;;;;;;;;;6148885;23;20191;-93
2023/09/29 16:33:02;;;;;;;;;;;;;;;;;;6149951;23;19905;-93
2023/09/29 16:35:28;;;;;;;;;;;;;;;;;;6148638;23;19940;-90
2023/09/29 16:37:54;;;;;;;;;;;;;;;;;;6150953;23;19905;-90
2023/09/29 16:40:20;;;;;;;;;;;;;;;;;;6150985;23;19920;-92